sensor_id;sensor_type;location;lat;lon;timestamp;P1;durP1;ratioP1;P2;durP2;ratioP2
23451;SDS011;11898;51.130;6.780;2022-09-28T00:01:19;2.95;;;1.60;;
23451;SDS011;11898;51.130;6.780;2022-09-28T00:03:50;1.95;;;1.75;;
23451;SDS011;11898;51.130;6.780;2022-09-28T00:06:21;1.70;;;1.60;;
23451;SDS011;11898;51.130;6.780;2022-09-28T00:08:53;3.22;;;1.85;;
23451;SDS011;11898;51.130;6.780;2022-09-28T00:11:22;2.22;;;1.75;;
23451;SDS011;11898;51.130;6.780;2022-09-28T00:13:56;2.35;;;2.02;;
23451;SDS011;11898;51.130;6.780;2022-09-28T00:16:30;2.10;;;1.90;;
23451;SDS011;11898;51.130;6.780;2022-09-28T00:19:00;4.35;;;2.35;;
23451;SDS011;11898;51.130;6.780;2022-09-28T00:21:32;2.35;;;2.15;;
23451;SDS011;11898;51.130;6.780;2022-09-28T00:24:02;2.20;;;2.00;;
23451;SDS011;11898;51.130;6.780;2022-09-28T00:26:48;3.12;;;2.65;;
23451;SDS011;11898;51.130;6.780;2022-09-28T00:29:26;3.17;;;2.17;;
23451;SDS011;11898;51.130;6.780;2022-09-28T00:31:58;3.47;;;2.50;;
23451;SDS011;11898;51.130;6.780;2022-09-28T00:34:30;5.35;;;2.33;;
23451;SDS011;11898;51.130;6.780;2022-09-28T00:37:01;2.47;;;2.27;;
23451;SDS011;11898;51.130;6.780;2022-09-28T00:39:30;4.20;;;2.72;;
23451;SDS011;11898;51.130;6.780;2022-09-28T00:42:01;2.45;;;2.25;;
23451;SDS011;11898;51.130;6.780;2022-09-28T00:44:41;2.45;;;2.17;;
23451;SDS011;11898;51.130;6.780;2022-09-28T00:47:26;1.90;;;1.80;;
23451;SDS011;11898;51.130;6.780;2022-09-28T00:50:08;2.70;;;2.15;;
23451;SDS011;11898;51.130;6.780;2022-09-28T00:53:00;3.10;;;1.87;;
23451;SDS011;11898;51.130;6.780;2022-09-28T00:55:32;3.05;;;2.02;;
23451;SDS011;11898;51.130;6.780;2022-09-28T00:58:15;5.05;;;2.08;;
23451;SDS011;11898;51.130;6.780;2022-09-28T01:00:48;3.33;;;2.00;;
23451;SDS011;11898;51.130;6.780;2022-09-28T01:03:17;2.42;;;2.10;;
23451;SDS011;11898;51.130;6.780;2022-09-28T01:05:46;2.10;;;1.85;;
23451;SDS011;11898;51.130;6.780;2022-09-28T01:08:17;5.47;;;2.27;;
23451;SDS011;11898;51.130;6.780;2022-09-28T01:10:47;2.90;;;2.15;;
23451;SDS011;11898;51.130;6.780;2022-09-28T01:13:17;5.35;;;2.02;;
23451;SDS011;11898;51.130;6.780;2022-09-28T01:15:52;3.72;;;2.00;;
23451;SDS011;11898;51.130;6.780;2022-09-28T01:21:29;3.22;;;2.00;;
23451;SDS011;11898;51.130;6.780;2022-09-28T01:26:44;3.65;;;2.30;;
23451;SDS011;11898;51.130;6.780;2022-09-28T01:31:55;2.33;;;2.02;;
23451;SDS011;11898;51.130;6.780;2022-09-28T01:34:26;3.37;;;2.05;;
23451;SDS011;11898;51.130;6.780;2022-09-28T01:36:55;2.95;;;2.40;;
23451;SDS011;11898;51.130;6.780;2022-09-28T01:39:32;3.57;;;1.93;;
23451;SDS011;11898;51.130;6.780;2022-09-28T01:42:03;3.77;;;2.30;;
23451;SDS011;11898;51.130;6.780;2022-09-28T01:44:40;3.05;;;2.37;;
23451;SDS011;11898;51.130;6.780;2022-09-28T01:47:11;4.20;;;2.00;;
23451;SDS011;11898;51.130;6.780;2022-09-28T01:49:47;3.50;;;2.22;;
23451;SDS011;11898;51.130;6.780;2022-09-28T01:52:18;3.77;;;2.27;;
23451;SDS011;11898;51.130;6.780;2022-09-28T01:55:25;2.70;;;2.22;;
23451;SDS011;11898;51.130;6.780;2022-09-28T01:57:40;3.75;;;2.17;;
23451;SDS011;11898;51.130;6.780;2022-09-28T02:00:18;4.25;;;2.20;;
23451;SDS011;11898;51.130;6.780;2022-09-28T02:03:13;3.77;;;2.37;;
23451;SDS011;11898;51.130;6.780;2022-09-28T02:05:29;4.42;;;2.47;;
23451;SDS011;11898;51.130;6.780;2022-09-28T02:08:02;2.87;;;2.52;;
23451;SDS011;11898;51.130;6.780;2022-09-28T02:10:39;3.83;;;2.77;;
23451;SDS011;11898;51.130;6.780;2022-09-28T02:13:15;7.03;;;2.90;;
23451;SDS011;11898;51.130;6.780;2022-09-28T02:15:49;4.17;;;2.52;;
23451;SDS011;11898;51.130;6.780;2022-09-28T02:18:19;3.90;;;2.70;;
23451;SDS011;11898;51.130;6.780;2022-09-28T02:20:54;3.58;;;2.75;;
23451;SDS011;11898;51.130;6.780;2022-09-28T02:23:26;3.30;;;2.52;;
23451;SDS011;11898;51.130;6.780;2022-09-28T02:26:00;5.60;;;3.15;;
23451;SDS011;11898;51.130;6.780;2022-09-28T02:28:31;3.30;;;3.00;;
23451;SDS011;11898;51.130;6.780;2022-09-28T02:30:59;4.28;;;3.33;;
23451;SDS011;11898;51.130;6.780;2022-09-28T02:33:29;6.33;;;3.50;;
23451;SDS011;11898;51.130;6.780;2022-09-28T02:36:00;6.17;;;3.67;;
23451;SDS011;11898;51.130;6.780;2022-09-28T02:38:29;4.33;;;3.27;;
23451;SDS011;11898;51.130;6.780;2022-09-28T02:41:03;5.17;;;3.20;;
23451;SDS011;11898;51.130;6.780;2022-09-28T02:43:37;6.12;;;4.30;;
23451;SDS011;11898;51.130;6.780;2022-09-28T02:49:04;7.00;;;5.10;;
23451;SDS011;11898;51.130;6.780;2022-09-28T02:51:54;8.40;;;6.17;;
23451;SDS011;11898;51.130;6.780;2022-09-28T02:54:44;9.38;;;6.60;;
23451;SDS011;11898;51.130;6.780;2022-09-28T03:00:16;11.05;;;7.00;;
23451;SDS011;11898;51.130;6.780;2022-09-28T03:02:48;11.40;;;7.95;;
23451;SDS011;11898;51.130;6.780;2022-09-28T03:05:40;12.43;;;8.13;;
23451;SDS011;11898;51.130;6.780;2022-09-28T03:11:04;10.50;;;7.78;;
23451;SDS011;11898;51.130;6.780;2022-09-28T03:13:41;12.78;;;7.72;;
23451;SDS011;11898;51.130;6.780;2022-09-28T03:18:42;12.93;;;7.97;;
23451;SDS011;11898;51.130;6.780;2022-09-28T03:21:11;11.70;;;7.80;;
23451;SDS011;11898;51.130;6.780;2022-09-28T03:23:40;12.75;;;8.48;;
23451;SDS011;11898;51.130;6.780;2022-09-28T03:26:10;10.63;;;7.45;;
23451;SDS011;11898;51.130;6.780;2022-09-28T03:28:39;11.97;;;8.05;;
23451;SDS011;11898;51.130;6.780;2022-09-28T03:31:07;12.55;;;8.08;;
23451;SDS011;11898;51.130;6.780;2022-09-28T03:33:36;13.45;;;8.38;;
23451;SDS011;11898;51.130;6.780;2022-09-28T03:36:05;13.15;;;8.40;;
23451;SDS011;11898;51.130;6.780;2022-09-28T03:38:35;11.12;;;8.38;;
23451;SDS011;11898;51.130;6.780;2022-09-28T03:41:03;13.62;;;8.73;;
23451;SDS011;11898;51.130;6.780;2022-09-28T03:43:33;16.15;;;9.58;;
23451;SDS011;11898;51.130;6.780;2022-09-28T03:46:02;15.20;;;8.78;;
23451;SDS011;11898;51.130;6.780;2022-09-28T03:48:31;13.03;;;9.18;;
23451;SDS011;11898;51.130;6.780;2022-09-28T03:51:03;13.38;;;9.50;;
23451;SDS011;11898;51.130;6.780;2022-09-28T03:53:35;12.37;;;9.53;;
23451;SDS011;11898;51.130;6.780;2022-09-28T03:56:04;15.28;;;9.53;;
23451;SDS011;11898;51.130;6.780;2022-09-28T03:58:40;13.35;;;9.93;;
23451;SDS011;11898;51.130;6.780;2022-09-28T04:01:10;16.30;;;10.23;;
23451;SDS011;11898;51.130;6.780;2022-09-28T04:03:43;14.18;;;9.63;;
23451;SDS011;11898;51.130;6.780;2022-09-28T04:06:12;15.90;;;10.38;;
23451;SDS011;11898;51.130;6.780;2022-09-28T04:08:45;16.48;;;11.03;;
23451;SDS011;11898;51.130;6.780;2022-09-28T04:11:13;15.63;;;10.63;;
23451;SDS011;11898;51.130;6.780;2022-09-28T04:13:42;16.23;;;10.80;;
23451;SDS011;11898;51.130;6.780;2022-09-28T04:16:12;17.00;;;12.00;;
23451;SDS011;11898;51.130;6.780;2022-09-28T04:18:41;21.12;;;12.60;;
23451;SDS011;11898;51.130;6.780;2022-09-28T04:21:11;16.85;;;12.40;;
23451;SDS011;11898;51.130;6.780;2022-09-28T04:23:41;22.00;;;12.50;;
23451;SDS011;11898;51.130;6.780;2022-09-28T04:26:21;16.40;;;12.13;;
23451;SDS011;11898;51.130;6.780;2022-09-28T04:28:43;18.45;;;12.45;;
23451;SDS011;11898;51.130;6.780;2022-09-28T04:31:39;19.17;;;13.13;;
23451;SDS011;11898;51.130;6.780;2022-09-28T04:34:10;19.50;;;12.95;;
23451;SDS011;11898;51.130;6.780;2022-09-28T04:36:40;19.12;;;12.35;;
23451;SDS011;11898;51.130;6.780;2022-09-28T04:39:09;19.50;;;13.70;;
23451;SDS011;11898;51.130;6.780;2022-09-28T04:41:39;18.98;;;12.90;;
23451;SDS011;11898;51.130;6.780;2022-09-28T04:44:08;21.07;;;12.40;;
23451;SDS011;11898;51.130;6.780;2022-09-28T04:46:37;20.17;;;12.65;;
23451;SDS011;11898;51.130;6.780;2022-09-28T04:49:05;18.75;;;12.18;;
23451;SDS011;11898;51.130;6.780;2022-09-28T04:51:35;17.65;;;11.90;;
23451;SDS011;11898;51.130;6.780;2022-09-28T04:54:04;21.97;;;13.03;;
23451;SDS011;11898;51.130;6.780;2022-09-28T04:56:32;15.75;;;11.25;;
23451;SDS011;11898;51.130;6.780;2022-09-28T04:59:01;13.20;;;10.85;;
23451;SDS011;11898;51.130;6.780;2022-09-28T05:01:30;18.30;;;11.65;;
23451;SDS011;11898;51.130;6.780;2022-09-28T05:03:58;16.57;;;11.48;;
23451;SDS011;11898;51.130;6.780;2022-09-28T05:06:27;15.28;;;11.12;;
23451;SDS011;11898;51.130;6.780;2022-09-28T05:08:56;14.78;;;10.25;;
23451;SDS011;11898;51.130;6.780;2022-09-28T05:11:25;16.55;;;11.08;;
23451;SDS011;11898;51.130;6.780;2022-09-28T05:13:53;14.83;;;10.35;;
23451;SDS011;11898;51.130;6.780;2022-09-28T05:16:22;15.28;;;10.45;;
23451;SDS011;11898;51.130;6.780;2022-09-28T05:18:55;15.38;;;9.73;;
23451;SDS011;11898;51.130;6.780;2022-09-28T05:21:23;16.33;;;10.73;;
23451;SDS011;11898;51.130;6.780;2022-09-28T05:23:53;17.35;;;10.00;;
23451;SDS011;11898;51.130;6.780;2022-09-28T05:26:24;16.35;;;9.83;;
23451;SDS011;11898;51.130;6.780;2022-09-28T05:28:52;14.53;;;9.93;;
23451;SDS011;11898;51.130;6.780;2022-09-28T05:31:21;15.18;;;9.18;;
23451;SDS011;11898;51.130;6.780;2022-09-28T05:33:49;18.20;;;9.93;;
23451;SDS011;11898;51.130;6.780;2022-09-28T05:36:19;13.88;;;9.08;;
23451;SDS011;11898;51.130;6.780;2022-09-28T05:38:48;12.50;;;9.38;;
23451;SDS011;11898;51.130;6.780;2022-09-28T05:41:17;11.73;;;8.28;;
23451;SDS011;11898;51.130;6.780;2022-09-28T05:43:45;14.75;;;9.08;;
23451;SDS011;11898;51.130;6.780;2022-09-28T05:46:14;14.60;;;8.80;;
23451;SDS011;11898;51.130;6.780;2022-09-28T05:48:44;12.45;;;7.92;;
23451;SDS011;11898;51.130;6.780;2022-09-28T05:51:12;12.05;;;8.25;;
23451;SDS011;11898;51.130;6.780;2022-09-28T05:53:41;11.68;;;7.85;;
23451;SDS011;11898;51.130;6.780;2022-09-28T05:56:09;10.03;;;7.53;;
23451;SDS011;11898;51.130;6.780;2022-09-28T05:58:38;11.73;;;8.00;;
23451;SDS011;11898;51.130;6.780;2022-09-28T06:01:07;9.45;;;7.37;;
23451;SDS011;11898;51.130;6.780;2022-09-28T06:03:36;9.08;;;7.12;;
23451;SDS011;11898;51.130;6.780;2022-09-28T06:06:04;10.30;;;6.65;;
23451;SDS011;11898;51.130;6.780;2022-09-28T06:08:33;11.05;;;7.50;;
23451;SDS011;11898;51.130;6.780;2022-09-28T06:11:01;8.73;;;6.85;;
23451;SDS011;11898;51.130;6.780;2022-09-28T06:13:30;10.50;;;7.12;;
23451;SDS011;11898;51.130;6.780;2022-09-28T06:15:59;8.45;;;6.87;;
23451;SDS011;11898;51.130;6.780;2022-09-28T06:18:29;9.75;;;6.75;;
23451;SDS011;11898;51.130;6.780;2022-09-28T06:20:57;9.20;;;6.42;;
23451;SDS011;11898;51.130;6.780;2022-09-28T06:23:26;9.50;;;5.90;;
23451;SDS011;11898;51.130;6.780;2022-09-28T06:25:57;9.03;;;6.12;;
23451;SDS011;11898;51.130;6.780;2022-09-28T06:28:26;9.03;;;6.53;;
23451;SDS011;11898;51.130;6.780;2022-09-28T06:30:54;7.50;;;5.42;;
23451;SDS011;11898;51.130;6.780;2022-09-28T06:33:23;10.23;;;5.55;;
23451;SDS011;11898;51.130;6.780;2022-09-28T06:35:52;11.38;;;5.90;;
23451;SDS011;11898;51.130;6.780;2022-09-28T06:38:20;7.90;;;6.00;;
23451;SDS011;11898;51.130;6.780;2022-09-28T06:40:49;9.70;;;5.83;;
23451;SDS011;11898;51.130;6.780;2022-09-28T06:43:18;11.33;;;6.83;;
23451;SDS011;11898;51.130;6.780;2022-09-28T06:45:50;10.95;;;5.80;;
23451;SDS011;11898;51.130;6.780;2022-09-28T06:48:20;10.72;;;6.12;;
23451;SDS011;11898;51.130;6.780;2022-09-28T06:50:49;9.05;;;5.62;;
23451;SDS011;11898;51.130;6.780;2022-09-28T06:53:17;9.93;;;5.72;;
23451;SDS011;11898;51.130;6.780;2022-09-28T06:55:46;8.68;;;5.58;;
23451;SDS011;11898;51.130;6.780;2022-09-28T06:58:16;8.40;;;5.83;;
23451;SDS011;11898;51.130;6.780;2022-09-28T07:00:47;9.63;;;5.92;;
23451;SDS011;11898;51.130;6.780;2022-09-28T07:03:19;9.13;;;6.27;;
23451;SDS011;11898;51.130;6.780;2022-09-28T07:05:49;12.13;;;5.72;;
23451;SDS011;11898;51.130;6.780;2022-09-28T07:08:20;7.35;;;5.75;;
23451;SDS011;11898;51.130;6.780;2022-09-28T07:10:54;7.53;;;5.67;;
23451;SDS011;11898;51.130;6.780;2022-09-28T07:13:23;8.03;;;5.53;;
23451;SDS011;11898;51.130;6.780;2022-09-28T07:15:59;6.67;;;5.45;;
23451;SDS011;11898;51.130;6.780;2022-09-28T07:18:28;7.28;;;4.92;;
23451;SDS011;11898;51.130;6.780;2022-09-28T07:20:57;7.58;;;5.08;;
23451;SDS011;11898;51.130;6.780;2022-09-28T07:23:27;6.55;;;4.97;;
23451;SDS011;11898;51.130;6.780;2022-09-28T07:25:56;7.95;;;4.95;;
23451;SDS011;11898;51.130;6.780;2022-09-28T07:28:25;5.78;;;4.83;;
23451;SDS011;11898;51.130;6.780;2022-09-28T07:30:55;6.50;;;5.25;;
23451;SDS011;11898;51.130;6.780;2022-09-28T07:33:24;7.33;;;5.05;;
23451;SDS011;11898;51.130;6.780;2022-09-28T07:35:54;6.85;;;5.03;;
23451;SDS011;11898;51.130;6.780;2022-09-28T07:38:22;6.65;;;5.30;;
23451;SDS011;11898;51.130;6.780;2022-09-28T07:40:51;7.67;;;5.40;;
23451;SDS011;11898;51.130;6.780;2022-09-28T07:43:38;6.17;;;4.95;;
23451;SDS011;11898;51.130;6.780;2022-09-28T07:46:07;5.95;;;4.75;;
23451;SDS011;11898;51.130;6.780;2022-09-28T07:48:40;7.62;;;5.03;;
23451;SDS011;11898;51.130;6.780;2022-09-28T07:51:09;7.90;;;4.75;;
23451;SDS011;11898;51.130;6.780;2022-09-28T07:53:38;7.10;;;4.97;;
23451;SDS011;11898;51.130;6.780;2022-09-28T07:56:07;5.40;;;4.78;;
23451;SDS011;11898;51.130;6.780;2022-09-28T07:58:36;6.55;;;4.60;;
23451;SDS011;11898;51.130;6.780;2022-09-28T08:01:06;7.83;;;4.05;;
23451;SDS011;11898;51.130;6.780;2022-09-28T08:03:37;7.33;;;4.20;;
23451;SDS011;11898;51.130;6.780;2022-09-28T08:06:06;5.58;;;4.15;;
23451;SDS011;11898;51.130;6.780;2022-09-28T08:08:37;6.75;;;3.65;;
23451;SDS011;11898;51.130;6.780;2022-09-28T08:11:08;4.53;;;3.98;;
23451;SDS011;11898;51.130;6.780;2022-09-28T08:13:38;4.08;;;3.67;;
23451;SDS011;11898;51.130;6.780;2022-09-28T08:16:08;4.92;;;3.75;;
23451;SDS011;11898;51.130;6.780;2022-09-28T08:18:37;6.85;;;4.12;;
23451;SDS011;11898;51.130;6.780;2022-09-28T08:21:06;6.80;;;3.87;;
23451;SDS011;11898;51.130;6.780;2022-09-28T08:23:53;6.60;;;3.95;;
23451;SDS011;11898;51.130;6.780;2022-09-28T08:26:22;5.50;;;3.98;;
23451;SDS011;11898;51.130;6.780;2022-09-28T08:28:51;5.80;;;3.80;;
23451;SDS011;11898;51.130;6.780;2022-09-28T08:31:20;5.28;;;4.08;;
23451;SDS011;11898;51.130;6.780;2022-09-28T08:33:48;5.95;;;4.12;;
23451;SDS011;11898;51.130;6.780;2022-09-28T08:36:18;8.25;;;3.98;;
23451;SDS011;11898;51.130;6.780;2022-09-28T08:38:47;5.05;;;3.80;;
23451;SDS011;11898;51.130;6.780;2022-09-28T08:41:18;9.85;;;4.03;;
23451;SDS011;11898;51.130;6.780;2022-09-28T08:44:12;4.72;;;4.10;;
23451;SDS011;11898;51.130;6.780;2022-09-28T08:46:52;7.08;;;3.65;;
23451;SDS011;11898;51.130;6.780;2022-09-28T08:49:27;3.55;;;2.98;;
23451;SDS011;11898;51.130;6.780;2022-09-28T08:52:02;4.50;;;2.92;;
23451;SDS011;11898;51.130;6.780;2022-09-28T08:54:36;5.35;;;3.02;;
23451;SDS011;11898;51.130;6.780;2022-09-28T08:57:16;3.62;;;2.72;;
23451;SDS011;11898;51.130;6.780;2022-09-28T08:59:53;5.12;;;2.75;;
23451;SDS011;11898;51.130;6.780;2022-09-28T09:02:28;4.25;;;2.45;;
23451;SDS011;11898;51.130;6.780;2022-09-28T09:05:00;3.65;;;2.35;;
23451;SDS011;11898;51.130;6.780;2022-09-28T09:07:47;2.90;;;2.50;;
23451;SDS011;11898;51.130;6.780;2022-09-28T09:16:31;4.70;;;2.70;;
23451;SDS011;11898;51.130;6.780;2022-09-28T09:19:39;5.45;;;2.80;;
23451;SDS011;11898;51.130;6.780;2022-09-28T09:22:15;4.30;;;1.90;;
23451;SDS011;11898;51.130;6.780;2022-09-28T09:30:10;2.67;;;1.50;;
23451;SDS011;11898;51.130;6.780;2022-09-28T09:46:30;2.35;;;1.87;;
23451;SDS011;11898;51.130;6.780;2022-09-28T09:49:13;3.52;;;2.00;;
23451;SDS011;11898;51.130;6.780;2022-09-28T09:54:39;3.17;;;2.10;;
23451;SDS011;11898;51.130;6.780;2022-09-28T09:57:19;2.75;;;2.10;;
23451;SDS011;11898;51.130;6.780;2022-09-28T09:59:50;3.47;;;2.22;;
23451;SDS011;11898;51.130;6.780;2022-09-28T10:02:26;3.80;;;2.08;;
23451;SDS011;11898;51.130;6.780;2022-09-28T10:07:59;3.92;;;1.47;;
23451;SDS011;11898;51.130;6.780;2022-09-28T10:10:36;2.17;;;1.12;;
23451;SDS011;11898;51.130;6.780;2022-09-28T10:13:07;3.72;;;1.40;;
23451;SDS011;11898;51.130;6.780;2022-09-28T10:15:36;1.35;;;1.25;;
23451;SDS011;11898;51.130;6.780;2022-09-28T10:18:09;2.05;;;1.25;;
23451;SDS011;11898;51.130;6.780;2022-09-28T10:20:41;3.45;;;1.55;;
23451;SDS011;11898;51.130;6.780;2022-09-28T10:23:18;2.08;;;1.70;;
23451;SDS011;11898;51.130;6.780;2022-09-28T10:25:52;3.58;;;2.10;;
23451;SDS011;11898;51.130;6.780;2022-09-28T10:28:31;3.62;;;2.10;;
23451;SDS011;11898;51.130;6.780;2022-09-28T10:34:03;1.90;;;1.80;;
23451;SDS011;11898;51.130;6.780;2022-09-28T10:36:41;2.25;;;1.70;;
23451;SDS011;11898;51.130;6.780;2022-09-28T10:39:21;2.83;;;1.90;;
23451;SDS011;11898;51.130;6.780;2022-09-28T10:41:51;2.05;;;1.85;;
23451;SDS011;11898;51.130;6.780;2022-09-28T10:44:21;2.30;;;1.85;;
23451;SDS011;11898;51.130;6.780;2022-09-28T10:46:57;1.75;;;1.62;;
23451;SDS011;11898;51.130;6.780;2022-09-28T10:49:38;2.62;;;1.98;;
23451;SDS011;11898;51.130;6.780;2022-09-28T10:51:59;3.17;;;1.50;;
23451;SDS011;11898;51.130;6.780;2022-09-28T10:54:29;2.17;;;1.92;;
23451;SDS011;11898;51.130;6.780;2022-09-28T10:56:58;3.52;;;1.75;;
23451;SDS011;11898;51.130;6.780;2022-09-28T11:02:14;3.15;;;1.50;;
23451;SDS011;11898;51.130;6.780;2022-09-28T11:04:42;2.87;;;1.72;;
23451;SDS011;11898;51.130;6.780;2022-09-28T11:07:17;1.72;;;1.50;;
23451;SDS011;11898;51.130;6.780;2022-09-28T11:09:50;3.17;;;1.50;;
23451;SDS011;11898;51.130;6.780;2022-09-28T11:12:21;2.02;;;1.80;;
23451;SDS011;11898;51.130;6.780;2022-09-28T11:14:55;2.60;;;1.90;;
23451;SDS011;11898;51.130;6.780;2022-09-28T11:17:27;1.85;;;1.45;;
23451;SDS011;11898;51.130;6.780;2022-09-28T11:22:55;1.87;;;1.77;;
23451;SDS011;11898;51.130;6.780;2022-09-28T11:25:25;3.92;;;1.82;;
23451;SDS011;11898;51.130;6.780;2022-09-28T11:27:58;1.72;;;1.62;;
23451;SDS011;11898;51.130;6.780;2022-09-28T11:30:31;2.98;;;1.62;;
23451;SDS011;11898;51.130;6.780;2022-09-28T11:33:17;2.50;;;1.60;;
23451;SDS011;11898;51.130;6.780;2022-09-28T11:35:49;2.40;;;1.37;;
23451;SDS011;11898;51.130;6.780;2022-09-28T11:46:46;2.70;;;1.40;;
23451;SDS011;11898;51.130;6.780;2022-09-28T11:49:43;2.37;;;1.20;;
23451;SDS011;11898;51.130;6.780;2022-09-28T11:52:28;1.67;;;1.32;;
23451;SDS011;11898;51.130;6.780;2022-09-28T11:57:43;2.17;;;1.25;;
23451;SDS011;11898;51.130;6.780;2022-09-28T12:00:15;1.65;;;1.55;;
23451;SDS011;11898;51.130;6.780;2022-09-28T12:02:50;4.78;;;1.50;;
23451;SDS011;11898;51.130;6.780;2022-09-28T12:05:40;3.85;;;1.25;;
23451;SDS011;11898;51.130;6.780;2022-09-28T12:08:13;4.20;;;1.35;;
23451;SDS011;11898;51.130;6.780;2022-09-28T12:10:54;3.17;;;1.30;;
23451;SDS011;11898;51.130;6.780;2022-09-28T12:13:25;1.95;;;1.27;;
23451;SDS011;11898;51.130;6.780;2022-09-28T12:18:34;2.15;;;1.15;;
23451;SDS011;11898;51.130;6.780;2022-09-28T12:21:31;1.20;;;1.10;;
23451;SDS011;11898;51.130;6.780;2022-09-28T12:24:15;1.87;;;1.10;;
23451;SDS011;11898;51.130;6.780;2022-09-28T12:26:58;3.80;;;1.30;;
23451;SDS011;11898;51.130;6.780;2022-09-28T12:34:56;2.75;;;1.40;;
23451;SDS011;11898;51.130;6.780;2022-09-28T12:40:10;1.27;;;1.17;;
23451;SDS011;11898;51.130;6.780;2022-09-28T12:43:00;2.80;;;1.20;;
23451;SDS011;11898;51.130;6.780;2022-09-28T12:53:48;3.40;;;1.00;;
23451;SDS011;11898;51.130;6.780;2022-09-28T12:58:46;2.37;;;1.00;;
23451;SDS011;11898;51.130;6.780;2022-09-28T13:03:55;1.50;;;1.10;;
23451;SDS011;11898;51.130;6.780;2022-09-28T13:06:25;1.97;;;1.00;;
23451;SDS011;11898;51.130;6.780;2022-09-28T13:09:01;1.30;;;0.70;;
23451;SDS011;11898;51.130;6.780;2022-09-28T13:11:31;1.10;;;0.63;;
23451;SDS011;11898;51.130;6.780;2022-09-28T13:19:16;1.40;;;0.80;;
23451;SDS011;11898;51.130;6.780;2022-09-28T13:24:32;1.37;;;0.75;;
23451;SDS011;11898;51.130;6.780;2022-09-28T13:27:03;2.70;;;0.90;;
23451;SDS011;11898;51.130;6.780;2022-09-28T13:29:31;0.70;;;0.60;;
23451;SDS011;11898;51.130;6.780;2022-09-28T13:32:01;1.92;;;0.80;;
23451;SDS011;11898;51.130;6.780;2022-09-28T13:34:31;1.17;;;0.75;;
23451;SDS011;11898;51.130;6.780;2022-09-28T14:16:45;1.87;;;0.80;;
23451;SDS011;11898;51.130;6.780;2022-09-28T14:27:38;1.87;;;0.85;;
23451;SDS011;11898;51.130;6.780;2022-09-28T14:32:54;0.90;;;0.70;;
23451;SDS011;11898;51.130;6.780;2022-09-28T14:35:26;1.75;;;1.00;;
23451;SDS011;11898;51.130;6.780;2022-09-28T14:38:12;1.87;;;1.02;;
23451;SDS011;11898;51.130;6.780;2022-09-28T14:46:33;1.70;;;1.02;;
23451;SDS011;11898;51.130;6.780;2022-09-28T14:54:32;4.22;;;0.90;;
23451;SDS011;11898;51.130;6.780;2022-09-28T14:57:16;1.22;;;0.70;;
23451;SDS011;11898;51.130;6.780;2022-09-28T14:59:38;1.65;;;1.00;;
23451;SDS011;11898;51.130;6.780;2022-09-28T15:04:56;0.98;;;0.88;;
23451;SDS011;11898;51.130;6.780;2022-09-28T15:07:53;4.20;;;1.27;;
23451;SDS011;11898;51.130;6.780;2022-09-28T15:12:59;3.10;;;1.10;;
23451;SDS011;11898;51.130;6.780;2022-09-28T15:15:37;3.25;;;1.00;;
23451;SDS011;11898;51.130;6.780;2022-09-28T15:20:59;0.75;;;0.75;;
23451;SDS011;11898;51.130;6.780;2022-09-28T15:23:38;2.17;;;1.00;;
23451;SDS011;11898;51.130;6.780;2022-09-28T15:28:58;1.75;;;0.90;;
23451;SDS011;11898;51.130;6.780;2022-09-28T15:33:59;2.92;;;1.20;;
23451;SDS011;11898;51.130;6.780;2022-09-28T15:36:45;1.70;;;0.88;;
23451;SDS011;11898;51.130;6.780;2022-09-28T15:39:20;4.00;;;1.32;;
23451;SDS011;11898;51.130;6.780;2022-09-28T15:41:49;1.87;;;1.10;;
23451;SDS011;11898;51.130;6.780;2022-09-28T15:44:23;1.92;;;1.17;;
23451;SDS011;11898;51.130;6.780;2022-09-28T15:46:50;1.60;;;0.93;;
23451;SDS011;11898;51.130;6.780;2022-09-28T15:49:23;2.07;;;1.00;;
23451;SDS011;11898;51.130;6.780;2022-09-28T15:52:04;0.90;;;0.88;;
23451;SDS011;11898;51.130;6.780;2022-09-28T15:54:40;2.02;;;0.80;;
23451;SDS011;11898;51.130;6.780;2022-09-28T15:57:05;0.80;;;0.80;;
23451;SDS011;11898;51.130;6.780;2022-09-28T15:59:36;1.47;;;0.93;;
23451;SDS011;11898;51.130;6.780;2022-09-28T16:02:10;1.05;;;0.80;;
23451;SDS011;11898;51.130;6.780;2022-09-28T16:12:43;0.95;;;0.95;;
23451;SDS011;11898;51.130;6.780;2022-09-28T16:15:24;1.40;;;1.00;;
23451;SDS011;11898;51.130;6.780;2022-09-28T16:17:55;1.42;;;1.02;;
23451;SDS011;11898;51.130;6.780;2022-09-28T16:20:30;1.30;;;1.00;;
23451;SDS011;11898;51.130;6.780;2022-09-28T16:23:08;12.15;;;6.47;;
23451;SDS011;11898;51.130;6.780;2022-09-28T16:33:54;1.52;;;1.02;;
23451;SDS011;11898;51.130;6.780;2022-09-28T16:36:25;0.90;;;0.90;;
23451;SDS011;11898;51.130;6.780;2022-09-28T16:38:56;0.85;;;0.85;;
23451;SDS011;11898;51.130;6.780;2022-09-28T16:41:25;0.80;;;0.80;;
23451;SDS011;11898;51.130;6.780;2022-09-28T16:44:00;2.15;;;1.02;;
23451;SDS011;11898;51.130;6.780;2022-09-28T16:46:28;1.00;;;1.00;;
23451;SDS011;11898;51.130;6.780;2022-09-28T16:48:59;1.37;;;1.00;;
23451;SDS011;11898;51.130;6.780;2022-09-28T16:51:29;2.05;;;1.12;;
23451;SDS011;11898;51.130;6.780;2022-09-28T16:54:20;3.90;;;1.02;;
23451;SDS011;11898;51.130;6.780;2022-09-28T16:56:59;1.10;;;1.00;;
23451;SDS011;11898;51.130;6.780;2022-09-28T16:59:29;1.05;;;1.05;;
23451;SDS011;11898;51.130;6.780;2022-09-28T17:01:57;0.90;;;0.90;;
23451;SDS011;11898;51.130;6.780;2022-09-28T17:04:26;1.00;;;1.00;;
23451;SDS011;11898;51.130;6.780;2022-09-28T17:06:55;1.17;;;0.85;;
23451;SDS011;11898;51.130;6.780;2022-09-28T17:09:24;1.27;;;1.20;;
23451;SDS011;11898;51.130;6.780;2022-09-28T17:11:52;1.15;;;1.02;;
23451;SDS011;11898;51.130;6.780;2022-09-28T17:14:22;1.27;;;1.17;;
23451;SDS011;11898;51.130;6.780;2022-09-28T17:16:51;0.98;;;0.98;;
23451;SDS011;11898;51.130;6.780;2022-09-28T17:19:22;0.98;;;0.90;;
23451;SDS011;11898;51.130;6.780;2022-09-28T17:21:53;2.52;;;1.22;;
23451;SDS011;11898;51.130;6.780;2022-09-28T17:24:21;1.25;;;1.10;;
23451;SDS011;11898;51.130;6.780;2022-09-28T17:26:50;3.75;;;1.40;;
23451;SDS011;11898;51.130;6.780;2022-09-28T17:29:19;1.95;;;1.45;;
23451;SDS011;11898;51.130;6.780;2022-09-28T17:31:47;1.22;;;1.17;;
23451;SDS011;11898;51.130;6.780;2022-09-28T17:34:16;5.87;;;4.53;;
23451;SDS011;11898;51.130;6.780;2022-09-28T17:36:45;4.65;;;3.05;;
23451;SDS011;11898;51.130;6.780;2022-09-28T17:39:15;1.65;;;1.40;;
23451;SDS011;11898;51.130;6.780;2022-09-28T17:41:45;2.05;;;1.50;;
23451;SDS011;11898;51.130;6.780;2022-09-28T17:44:13;1.87;;;1.77;;
23451;SDS011;11898;51.130;6.780;2022-09-28T17:46:43;1.80;;;1.62;;
23451;SDS011;11898;51.130;6.780;2022-09-28T17:49:15;1.67;;;1.57;;
23451;SDS011;11898;51.130;6.780;2022-09-28T17:51:44;1.72;;;1.62;;
23451;SDS011;11898;51.130;6.780;2022-09-28T17:54:13;1.87;;;1.60;;
23451;SDS011;11898;51.130;6.780;2022-09-28T17:56:43;1.80;;;1.70;;
23451;SDS011;11898;51.130;6.780;2022-09-28T17:59:13;2.12;;;2.02;;
23451;SDS011;11898;51.130;6.780;2022-09-28T18:01:43;2.17;;;1.67;;
23451;SDS011;11898;51.130;6.780;2022-09-28T18:04:12;2.50;;;2.30;;
23451;SDS011;11898;51.130;6.780;2022-09-28T18:06:44;3.37;;;3.07;;
23451;SDS011;11898;51.130;6.780;2022-09-28T18:09:13;9.90;;;7.20;;
23451;SDS011;11898;51.130;6.780;2022-09-28T18:11:42;7.40;;;5.62;;
23451;SDS011;11898;51.130;6.780;2022-09-28T18:14:11;40.03;;;27.37;;
23451;SDS011;11898;51.130;6.780;2022-09-28T18:16:40;28.80;;;20.52;;
23451;SDS011;11898;51.130;6.780;2022-09-28T18:19:09;18.00;;;11.90;;
23451;SDS011;11898;51.130;6.780;2022-09-28T18:21:38;11.10;;;9.20;;
23451;SDS011;11898;51.130;6.780;2022-09-28T18:24:06;16.70;;;13.43;;
23451;SDS011;11898;51.130;6.780;2022-09-28T18:26:35;15.40;;;12.03;;
23451;SDS011;11898;51.130;6.780;2022-09-28T18:29:04;3.20;;;2.90;;